Etusivu
METAR-TAF:

METAR-TAF

Lentoasemat :

Nevis, Antigua ja Barbuda

Leveyspiiri: 17-12N, Pituuspiiri: 062-35W, korkeus merenpinnasta: 17 m

Tämänhetkinen sää

Tämä raportti tehtiin 12 tuntia ja 48 minuuttia sitten, kello 21.00 UTC
Tuuli 5 kn idästä
Lämpötila 29°C
Kosteus 89%
Ilmanpaine 1012 hPa
Näkyvyys 10 km tai enemmän
Hajonneita pilviä 1800 ft:n korkeudessa
heikkoja vesikuuroja,

METAR: TKPN 202100Z 10005KT 9999 -SHRA BKN018 29/27 Q1012

Aika: 05:48 (09:48 UTC)

Sääennuste

Tämä raportti tehtiin 16 tuntia ja 48 minuuttia sitten, kello 17.00 UTC
Ennuste voimassa 20. päivästä klo 18 UTC - 21. päivään klo 18 UTC
Tuuli 10 kn idästä
Näkyvyys 10 km tai enemmän
Hajanaisia pilviä 2200 ft:n korkeudessa

TAF: TKPN 201700Z 2018/2118 10010KT 9999 SCT022

Säähavainnot ja -ennusteet yli 4000 lentoasemalta (METAR- ja TAF-raportit).

Käytössä olevat sääasemat on merkitty karttaan keltaisilla ja punaisilla pisteillä.

Aseta hiiri pisteen päälle nähdäksesi sääaseman nimen.

Klikkaa sitten nähdäksesi säähavainnot ja -ennusteet.

Kartan vaihtaminen: klikkaa mustalla rastilla varustettuja vihreitä pisteitä, niin voit zoomata sisään; viivalla varustettua vihreää pistettä, niin voit zoomata ulos tai vihreitä nuolia, niin pääset viereisille kartoille.


METAR-TAF: